Pagina principale
METAR-TAF:

METAR-TAF

Aeroporti :

Buochs, Svizzera

latitudine: 46-58-28N, longitudine: 8-23-49E, altezza: 449 m

Osservazione

Il bollettino è stato emesso 57 minuti fa, alle 11:20 UTC
Vento 2 kt da direzioni variabili
Temperature 4°C
Umidità 87%
Pressione 1020 hPa
Visibilità 10 km o più
Nuvoloso ad un'altezza di 3000 ft
Nubi sparse ad un'altezza di 4200 ft

METAR: LSZC 191120Z AUTO VRB02KT 9999 BKN030 SCT042 04/02 Q1020

Ora: 13:17 (12:17 UTC)


TAF: mancante

Osservazioni e previsioni meteorologiche di più di 4000 aeroporti (messaggi METAR e TAF).

Le stazioni disponibili sono rappresentate dai dischi gialli e rossi sulla carta.

Puntare il mouse per vedere il nome della stazione.

Clicca sopra per visualizzare le osservazioni e previsioni meteorologiche.

Per cambiare la mappa : fare clic sui pulsanti verdi con una croce nera per ingrandire, il pulsante verde con un trattino per diminuire, o sulla freccia verde per le mappe adiacenti.


METAR-TAF: